createdAt,value
2023-05-09T00:00:27.456Z,918.00
2023-05-09T00:01:27.478Z,917.00
2023-05-09T00:02:27.577Z,959.00
2023-05-09T00:03:27.505Z,962.00
2023-05-09T00:04:27.567Z,967.00
2023-05-09T00:05:27.505Z,964.00
2023-05-09T00:06:27.489Z,965.00
2023-05-09T00:07:27.493Z,954.00
2023-05-09T00:08:27.493Z,971.00
2023-05-09T00:09:27.525Z,976.00
2023-05-09T00:10:27.525Z,994.00
2023-05-09T00:11:27.541Z,969.00
2023-05-09T00:12:27.530Z,973.00
2023-05-09T00:13:27.611Z,976.00
2023-05-09T00:14:27.596Z,961.00
2023-05-09T00:15:27.746Z,937.00
2023-05-09T00:16:27.722Z,950.00
2023-05-09T00:17:27.774Z,962.00
2023-05-09T00:18:27.783Z,957.00
2023-05-09T00:19:27.757Z,949.00
2023-05-09T00:20:27.756Z,961.00
2023-05-09T00:21:27.766Z,966.00
2023-05-09T00:22:27.758Z,977.00
2023-05-09T00:23:27.753Z,977.00
2023-05-09T00:24:27.743Z,961.00
2023-05-09T00:25:27.757Z,966.00
2023-05-09T00:26:27.805Z,957.00
2023-05-09T00:27:27.797Z,951.00
2023-05-09T00:28:27.823Z,947.00
2023-05-09T00:29:27.822Z,960.00
2023-05-09T00:30:27.808Z,959.00
2023-05-09T00:31:27.958Z,955.00
2023-05-09T00:32:27.815Z,957.00
2023-05-09T00:33:27.801Z,977.00
2023-05-09T00:34:27.798Z,990.00
2023-05-09T00:35:27.815Z,967.00
2023-05-09T00:36:27.801Z,984.00
2023-05-09T00:37:27.824Z,968.00
2023-05-09T00:38:27.806Z,967.00
2023-05-09T00:39:27.822Z,947.00
2023-05-09T00:40:27.793Z,957.00
2023-05-09T00:41:27.836Z,941.00
2023-05-09T00:42:27.815Z,963.00
2023-05-09T00:43:27.808Z,959.00
2023-05-09T00:44:27.843Z,941.00
2023-05-09T00:45:27.843Z,932.00
2023-05-09T00:46:27.879Z,949.00
2023-05-09T00:47:27.931Z,944.00
2023-05-09T00:48:27.847Z,944.00
2023-05-09T00:49:27.852Z,957.00
2023-05-09T00:50:27.843Z,950.00
2023-05-09T00:51:27.843Z,939.00
2023-05-09T00:52:27.839Z,928.00
2023-05-09T00:53:27.843Z,932.00
2023-05-09T00:54:27.880Z,928.00
2023-05-09T00:55:27.929Z,938.00
2023-05-09T00:56:27.849Z,936.00
2023-05-09T00:57:27.845Z,954.00
2023-05-09T00:58:27.832Z,939.00
2023-05-09T00:59:27.845Z,931.00
2023-05-09T01:00:27.876Z,930.00
2023-05-09T01:01:27.955Z,901.00
2023-05-09T01:02:28.003Z,900.00
2023-05-09T01:03:28.155Z,922.00
2023-05-09T01:04:28.028Z,933.00
2023-05-09T01:05:28.073Z,948.00
2023-05-09T01:06:28.144Z,951.00
2023-05-09T01:07:28.176Z,931.00
2023-05-09T01:08:28.330Z,926.00
2023-05-09T01:09:28.242Z,914.00
2023-05-09T01:10:28.300Z,895.00
2023-05-09T01:11:28.356Z,910.00
2023-05-09T01:12:28.327Z,928.00
2023-05-09T01:13:28.406Z,944.00
2023-05-09T01:14:28.383Z,918.00
2023-05-09T01:15:28.454Z,914.00
2023-05-09T01:16:28.567Z,918.00
2023-05-09T01:17:28.500Z,941.00
2023-05-09T01:18:28.473Z,936.00
2023-05-09T01:19:28.546Z,935.00
2023-05-09T01:20:28.481Z,922.00
2023-05-09T01:21:28.473Z,913.00
2023-05-09T01:22:28.462Z,907.00
2023-05-09T01:23:28.475Z,927.00
2023-05-09T01:24:28.478Z,945.00
2023-05-09T01:25:28.494Z,934.00
2023-05-09T01:26:28.497Z,929.00
2023-05-09T01:27:28.486Z,944.00
2023-05-09T01:28:28.493Z,946.00
2023-05-09T01:29:28.474Z,942.00
2023-05-09T01:30:28.487Z,945.00
2023-05-09T01:31:28.553Z,922.00
2023-05-09T01:32:28.562Z,938.00
2023-05-09T01:33:28.493Z,938.00
2023-05-09T01:34:28.510Z,934.00
2023-05-09T01:35:28.660Z,943.00
2023-05-09T01:36:28.591Z,936.00
2023-05-09T01:37:28.595Z,940.00
2023-05-09T01:38:28.571Z,964.00
2023-05-09T01:39:28.580Z,985.00
2023-05-09T01:40:28.620Z,1000.00
2023-05-09T01:41:28.645Z,989.00
2023-05-09T01:42:28.691Z,991.00
2023-05-09T01:43:28.760Z,982.00
2023-05-09T01:44:28.800Z,986.00
2023-05-09T01:45:28.838Z,967.00
2023-05-09T01:46:28.884Z,967.00
2023-05-09T01:47:28.885Z,981.00
2023-05-09T01:48:28.883Z,975.00
2023-05-09T01:49:28.863Z,963.00
2023-05-09T01:50:28.889Z,978.00
2023-05-09T01:51:28.957Z,968.00
2023-05-09T01:52:28.872Z,975.00
2023-05-09T01:53:28.907Z,980.00
2023-05-09T01:54:28.883Z,962.00
2023-05-09T01:55:28.893Z,964.00
2023-05-09T01:56:28.868Z,987.00
2023-05-09T01:57:28.865Z,970.00
2023-05-09T01:58:28.898Z,952.00
2023-05-09T01:59:28.868Z,969.00
2023-05-09T02:00:28.860Z,984.00
2023-05-09T02:01:28.881Z,978.00
2023-05-09T02:02:28.995Z,974.00
2023-05-09T02:03:28.908Z,972.00
2023-05-09T02:04:28.873Z,978.00
2023-05-09T02:05:28.892Z,976.00
2023-05-09T02:06:28.876Z,979.00
2023-05-09T02:07:28.955Z,961.00
2023-05-09T02:08:28.921Z,977.00
2023-05-09T02:09:28.981Z,961.00
2023-05-09T02:10:29.015Z,952.00
2023-05-09T02:11:29.109Z,956.00
2023-05-09T02:12:29.088Z,953.00
2023-05-09T02:13:29.116Z,959.00
2023-05-09T02:14:29.086Z,955.00
2023-05-09T02:15:29.161Z,953.00
2023-05-09T02:16:29.225Z,975.00
2023-05-09T02:17:29.225Z,962.00
2023-05-09T02:18:29.222Z,993.00
2023-05-09T02:19:29.222Z,1005.00
2023-05-09T02:20:29.242Z,1003.00
2023-05-09T02:21:29.353Z,976.00
2023-05-09T02:22:29.326Z,977.00
2023-05-09T02:23:29.396Z,974.00
2023-05-09T02:24:29.322Z,960.00
2023-05-09T02:25:29.324Z,969.00
2023-05-09T02:26:29.316Z,963.00
2023-05-09T02:27:29.317Z,967.00
2023-05-09T02:28:29.314Z,978.00
2023-05-09T02:29:29.311Z,970.00
2023-05-09T02:30:29.294Z,975.00
2023-05-09T02:31:29.438Z,976.00
2023-05-09T02:32:29.362Z,988.00
2023-05-09T02:33:29.296Z,995.00
2023-05-09T02:34:29.278Z,982.00
2023-05-09T02:35:29.321Z,988.00
2023-05-09T02:36:29.291Z,987.00
2023-05-09T02:37:29.315Z,998.00
2023-05-09T02:38:29.311Z,992.00
2023-05-09T02:39:29.402Z,1004.00
2023-05-09T02:40:29.339Z,999.00
2023-05-09T02:41:29.330Z,1001.00
2023-05-09T02:42:29.326Z,994.00
2023-05-09T02:43:29.342Z,999.00
2023-05-09T02:44:29.307Z,995.00
2023-05-09T02:45:29.328Z,1005.00
2023-05-09T02:46:29.386Z,1005.00
2023-05-09T02:47:29.369Z,988.00
2023-05-09T02:48:29.351Z,965.00
2023-05-09T02:49:32.366Z,982.00
2023-05-09T02:50:29.334Z,987.00
2023-05-09T02:51:29.330Z,978.00
2023-05-09T02:52:29.365Z,972.00
2023-05-09T02:53:29.320Z,979.00
2023-05-09T02:54:29.305Z,970.00
2023-05-09T02:55:29.380Z,966.00
2023-05-09T02:56:29.327Z,961.00
2023-05-09T02:57:29.278Z,958.00
2023-05-09T02:58:29.270Z,968.00
2023-05-09T02:59:29.334Z,963.00
2023-05-09T03:00:29.277Z,969.00
2023-05-09T03:01:29.293Z,946.00
2023-05-09T03:02:29.418Z,962.00
2023-05-09T03:03:29.439Z,963.00
2023-05-09T03:04:29.244Z,974.00
2023-05-09T03:05:29.229Z,973.00
2023-05-09T03:06:29.245Z,968.00
2023-05-09T03:07:29.217Z,965.00
2023-05-09T03:08:29.217Z,989.00
2023-05-09T03:09:29.196Z,985.00
2023-05-09T03:10:29.188Z,994.00
2023-05-09T03:11:29.265Z,996.00
2023-05-09T03:12:29.224Z,992.00
2023-05-09T03:13:29.169Z,1007.00
2023-05-09T03:14:29.169Z,981.00
2023-05-09T03:15:29.158Z,979.00
2023-05-09T03:16:29.165Z,975.00
2023-05-09T03:17:29.175Z,1008.00
2023-05-09T03:18:29.147Z,1010.00
2023-05-09T03:19:29.145Z,985.00
2023-05-09T03:20:29.154Z,1008.00
2023-05-09T03:21:29.127Z,1003.00
2023-05-09T03:22:29.126Z,989.00
2023-05-09T03:23:29.101Z,982.00
2023-05-09T03:24:29.106Z,988.00
2023-05-09T03:25:29.110Z,988.00
2023-05-09T03:26:29.220Z,977.00
2023-05-09T03:27:29.294Z,970.00
2023-05-09T03:28:29.251Z,960.00
2023-05-09T03:29:29.073Z,964.00
2023-05-09T03:30:29.078Z,964.00
2023-05-09T03:31:29.081Z,971.00
2023-05-09T03:32:29.145Z,972.00
2023-05-09T03:33:29.061Z,980.00
2023-05-09T03:34:29.051Z,969.00
2023-05-09T03:35:29.045Z,973.00
2023-05-09T03:36:29.124Z,981.00
2023-05-09T03:37:29.017Z,980.00
2023-05-09T03:38:29.012Z,970.00
2023-05-09T03:39:29.018Z,973.00
2023-05-09T03:40:28.998Z,970.00
2023-05-09T03:41:29.002Z,961.00
2023-05-09T03:42:29.006Z,975.00
2023-05-09T03:43:29.089Z,950.00
2023-05-09T03:44:28.993Z,957.00
2023-05-09T03:45:28.984Z,936.00
2023-05-09T03:46:29.024Z,952.00
2023-05-09T03:47:29.016Z,933.00
2023-05-09T03:48:28.958Z,938.00
2023-05-09T03:49:28.954Z,940.00
2023-05-09T03:50:28.948Z,952.00
2023-05-09T03:51:28.923Z,956.00
2023-05-09T03:52:28.941Z,937.00
2023-05-09T03:53:28.914Z,955.00
2023-05-09T03:54:28.920Z,968.00
2023-05-09T03:55:28.932Z,941.00
2023-05-09T03:56:28.901Z,946.00
2023-05-09T03:57:28.901Z,951.00
2023-05-09T03:58:28.886Z,950.00
2023-05-09T03:59:28.958Z,954.00
2023-05-09T04:00:28.887Z,952.00
2023-05-09T04:01:28.891Z,946.00
2023-05-09T04:02:29.026Z,941.00
2023-05-09T04:03:28.921Z,929.00
2023-05-09T04:04:28.843Z,947.00
2023-05-09T04:05:28.830Z,949.00
2023-05-09T04:06:28.835Z,956.00
2023-05-09T04:07:28.833Z,944.00
2023-05-09T04:08:28.835Z,943.00
2023-05-09T04:09:28.843Z,954.00
2023-05-09T04:10:28.824Z,958.00
2023-05-09T04:11:28.829Z,951.00
2023-05-09T04:12:28.863Z,935.00
2023-05-09T04:13:28.900Z,938.00
2023-05-09T04:14:28.869Z,936.00
2023-05-09T04:15:28.903Z,940.00
2023-05-09T04:16:28.933Z,940.00
2023-05-09T04:17:28.935Z,959.00
2023-05-09T04:18:28.914Z,963.00
2023-05-09T04:19:28.938Z,945.00
2023-05-09T04:20:28.942Z,959.00
2023-05-09T04:21:28.956Z,954.00
2023-05-09T04:22:28.958Z,956.00
2023-05-09T04:23:28.968Z,942.00
2023-05-09T04:24:28.989Z,942.00
2023-05-09T04:25:28.963Z,947.00
2023-05-09T04:26:28.968Z,929.00
2023-05-09T04:27:29.019Z,943.00
2023-05-09T04:28:29.061Z,939.00
2023-05-09T04:29:29.076Z,948.00
2023-05-09T04:30:29.071Z,940.00
2023-05-09T04:31:29.386Z,943.00
2023-05-09T04:32:29.124Z,933.00
2023-05-09T04:33:29.143Z,932.00
2023-05-09T04:34:29.119Z,938.00
2023-05-09T04:35:29.156Z,938.00
2023-05-09T04:36:29.145Z,951.00
2023-05-09T04:37:29.170Z,926.00
2023-05-09T04:38:29.393Z,941.00
2023-05-09T04:39:29.187Z,923.00
2023-05-09T04:40:29.214Z,937.00
2023-05-09T04:41:29.210Z,935.00
2023-05-09T04:42:29.227Z,934.00
2023-05-09T04:43:29.262Z,939.00
2023-05-09T04:44:29.261Z,941.00
2023-05-09T04:45:29.322Z,944.00
2023-05-09T04:46:29.408Z,953.00
2023-05-09T04:47:29.563Z,970.00
2023-05-09T04:48:29.509Z,967.00
2023-05-09T04:49:29.512Z,973.00
2023-05-09T04:50:29.562Z,980.00
2023-05-09T04:51:29.589Z,972.00
2023-05-09T04:52:29.629Z,959.00
2023-05-09T04:53:29.659Z,965.00
2023-05-09T04:54:29.649Z,965.00
2023-05-09T04:55:29.649Z,948.00
2023-05-09T04:56:29.679Z,949.00
2023-05-09T04:57:29.669Z,946.00
2023-05-09T04:58:29.686Z,934.00
2023-05-09T04:59:29.698Z,954.00
2023-05-09T05:00:29.707Z,963.00
2023-05-09T05:01:29.760Z,971.00
2023-05-09T05:02:29.763Z,955.00
2023-05-09T05:03:29.837Z,966.00
2023-05-09T05:04:29.808Z,966.00
2023-05-09T05:05:30.122Z,971.00
2023-05-09T05:06:29.808Z,983.00
2023-05-09T05:07:29.814Z,983.00
2023-05-09T05:08:29.824Z,994.00
2023-05-09T05:09:29.911Z,1006.00
2023-05-09T05:10:29.882Z,1019.00
2023-05-09T05:11:29.911Z,1016.00
2023-05-09T05:12:29.915Z,1029.00
2023-05-09T05:13:29.930Z,1021.00
2023-05-09T05:14:29.920Z,1031.00
2023-05-09T05:15:29.929Z,1017.00
2023-05-09T05:16:30.002Z,1024.00
2023-05-09T05:17:30.053Z,1014.00
2023-05-09T05:18:30.039Z,1035.00
2023-05-09T05:19:30.204Z,1043.00
2023-05-09T05:20:30.156Z,1031.00
2023-05-09T05:21:30.214Z,1033.00
2023-05-09T05:22:31.645Z,1028.00
2023-05-09T05:23:30.762Z,1056.00
2023-05-09T05:24:30.340Z,1041.00
2023-05-09T05:25:30.353Z,1039.00
2023-05-09T05:26:30.326Z,991.00
2023-05-09T05:27:30.347Z,1000.00
2023-05-09T05:28:30.774Z,1016.00
2023-05-09T05:29:30.375Z,1044.00
2023-05-09T05:30:31.580Z,1076.00
2023-05-09T05:31:30.418Z,1102.00
2023-05-09T05:32:30.405Z,1126.00
2023-05-09T05:33:30.765Z,1161.00
2023-05-09T05:34:30.479Z,1217.00
2023-05-09T05:35:30.599Z,1266.00
2023-05-09T05:36:30.563Z,1295.00
2023-05-09T05:37:30.759Z,1344.00
2023-05-09T05:38:30.632Z,1399.00
2023-05-09T05:39:30.685Z,1470.00
2023-05-09T05:40:30.734Z,1501.00
2023-05-09T05:41:30.816Z,1544.00
2023-05-09T05:42:30.869Z,1580.00
2023-05-09T05:43:30.923Z,1586.00
2023-05-09T05:44:31.002Z,1600.00
2023-05-09T05:45:31.098Z,1631.00
2023-05-09T05:46:31.060Z,1680.00
2023-05-09T05:47:31.174Z,1682.00
2023-05-09T05:48:31.157Z,1695.00
2023-05-09T05:49:31.224Z,1745.00
2023-05-09T05:50:31.251Z,1764.00
2023-05-09T05:51:31.342Z,1780.00
2023-05-09T05:52:31.327Z,1794.00
2023-05-09T05:53:32.711Z,1831.00
2023-05-09T05:54:31.367Z,1851.00
2023-05-09T05:55:31.390Z,1879.00
2023-05-09T05:56:31.419Z,1901.00
2023-05-09T05:57:31.489Z,1901.00
2023-05-09T05:58:31.528Z,1922.00
2023-05-09T05:59:31.542Z,1954.00
2023-05-09T06:00:31.660Z,1941.00
2023-05-09T06:01:31.698Z,1964.00
2023-05-09T06:02:31.708Z,1981.00
2023-05-09T06:03:31.822Z,1992.00
2023-05-09T06:04:31.789Z,2009.00
2023-05-09T06:05:31.876Z,2032.00
2023-05-09T06:06:31.830Z,2098.00
2023-05-09T06:07:31.903Z,2204.00
2023-05-09T06:08:31.830Z,2221.00
2023-05-09T06:09:31.818Z,2236.00
2023-05-09T06:10:31.842Z,2221.00
2023-05-09T06:11:31.840Z,2285.00
2023-05-09T06:12:31.882Z,2321.00
2023-05-09T06:13:32.270Z,2332.00
2023-05-09T06:14:32.289Z,2340.00
2023-05-09T06:15:31.916Z,2300.00
2023-05-09T06:16:31.895Z,2258.00
2023-05-09T06:17:31.904Z,2231.00
2023-05-09T06:18:31.886Z,2252.00
2023-05-09T06:19:31.907Z,2211.00
2023-05-09T06:20:31.881Z,2268.00
2023-05-09T06:21:31.849Z,2388.00
2023-05-09T06:22:31.847Z,2361.00
2023-05-09T06:23:31.965Z,2371.00
2023-05-09T06:24:35.792Z,2365.00
2023-05-09T06:25:31.889Z,2366.00
2023-05-09T06:26:31.887Z,2368.00
2023-05-09T06:27:31.886Z,2381.00
2023-05-09T06:28:31.855Z,2392.00
2023-05-09T06:29:31.881Z,2401.00
2023-05-09T06:30:31.871Z,2381.00
2023-05-09T06:31:31.848Z,2390.00
2023-05-09T06:32:31.896Z,2335.00
2023-05-09T06:33:31.837Z,2289.00
2023-05-09T06:34:32.287Z,2188.00
2023-05-09T06:35:31.893Z,2115.00
2023-05-09T06:36:31.810Z,2144.00
2023-05-09T06:37:31.801Z,2144.00
2023-05-09T06:38:31.931Z,2077.00
2023-05-09T06:39:31.867Z,2093.00
2023-05-09T06:40:31.771Z,2004.00
2023-05-09T06:41:31.794Z,1932.00
2023-05-09T06:42:31.762Z,1952.00
2023-05-09T06:43:31.773Z,1866.00
2023-05-09T06:44:31.765Z,1733.00
2023-05-09T06:45:31.773Z,1714.00
2023-05-09T06:46:31.776Z,1743.00
2023-05-09T06:47:31.987Z,1669.00
2023-05-09T06:48:32.452Z,1587.00
2023-05-09T06:49:31.867Z,1638.00
2023-05-09T06:50:32.919Z,1590.00
2023-05-09T06:51:31.949Z,1561.00
2023-05-09T06:52:32.046Z,1572.00
2023-05-09T06:53:32.340Z,1507.00
2023-05-09T06:54:32.147Z,1546.00
2023-05-09T06:55:32.290Z,1544.00
2023-05-09T06:56:32.269Z,1570.00
2023-05-09T06:57:32.456Z,1572.00
2023-05-09T06:58:32.865Z,1603.00
2023-05-09T06:59:32.793Z,1598.00
2023-05-09T07:00:32.409Z,1620.00
2023-05-09T07:01:32.593Z,1647.00
2023-05-09T07:02:32.524Z,1637.00
2023-05-09T07:03:32.503Z,1666.00
2023-05-09T07:04:32.566Z,1618.00
2023-05-09T07:05:32.756Z,1626.00
2023-05-09T07:06:32.630Z,1623.00
2023-05-09T07:07:32.626Z,1594.00
2023-05-09T07:08:32.692Z,1634.00
2023-05-09T07:09:32.641Z,1675.00
2023-05-09T07:10:32.710Z,1709.00
2023-05-09T07:11:32.767Z,1755.00
2023-05-09T07:12:32.713Z,1797.00
2023-05-09T07:13:32.717Z,1754.00
2023-05-09T07:14:32.825Z,1734.00
2023-05-09T07:15:41.289Z,1725.00
2023-05-09T07:16:35.808Z,1726.00
2023-05-09T07:17:32.877Z,1726.00
2023-05-09T07:18:32.712Z,1729.00
2023-05-09T07:19:32.842Z,1725.00
2023-05-09T07:20:32.722Z,1736.00
2023-05-09T07:21:32.686Z,1740.00
2023-05-09T07:22:34.113Z,1728.00
2023-05-09T07:23:32.654Z,1690.00
2023-05-09T07:24:32.876Z,1670.00
2023-05-09T07:25:32.695Z,1662.00
2023-05-09T07:26:32.660Z,1626.00
2023-05-09T07:27:32.737Z,1463.00
2023-05-09T07:28:32.689Z,1497.00
2023-05-09T07:29:32.630Z,1608.00
2023-05-09T07:30:32.629Z,1603.00
2023-05-09T07:31:33.548Z,1594.00
2023-05-09T07:32:32.834Z,1501.00
2023-05-09T07:33:32.818Z,1345.00
2023-05-09T07:34:32.839Z,1272.00
2023-05-09T07:35:32.871Z,1184.00
2023-05-09T07:36:34.746Z,1111.00
2023-05-09T07:37:33.018Z,1066.00
2023-05-09T07:38:33.297Z,980.00
2023-05-09T07:39:33.330Z,983.00
2023-05-09T07:40:33.209Z,942.00
2023-05-09T07:41:33.260Z,884.00
2023-05-09T07:42:33.267Z,873.00
2023-05-09T07:43:33.268Z,812.00
2023-05-09T07:44:33.262Z,817.00
2023-05-09T07:45:33.322Z,798.00
2023-05-09T07:46:33.319Z,762.00
2023-05-09T07:47:33.352Z,732.00
2023-05-09T07:48:33.357Z,726.00
2023-05-09T07:49:33.419Z,720.00
2023-05-09T07:50:33.492Z,719.00
2023-05-09T07:51:33.528Z,705.00
2023-05-09T07:52:33.602Z,700.00
2023-05-09T07:53:33.637Z,698.00
2023-05-09T07:54:33.797Z,696.00
2023-05-09T07:55:33.748Z,701.00
2023-05-09T07:56:33.961Z,698.00
2023-05-09T07:57:33.873Z,701.00
2023-05-09T07:58:33.946Z,707.00
2023-05-09T07:59:34.414Z,715.00
2023-05-09T08:00:34.072Z,727.00
2023-05-09T08:01:34.133Z,745.00
2023-05-09T08:02:34.276Z,711.00
2023-05-09T08:03:34.283Z,722.00
2023-05-09T08:04:34.373Z,681.00
2023-05-09T08:05:34.353Z,652.00
2023-05-09T08:06:34.410Z,634.00
2023-05-09T08:07:34.472Z,641.00
2023-05-09T08:08:34.502Z,640.00
2023-05-09T08:09:34.536Z,633.00
2023-05-09T08:10:34.582Z,640.00
2023-05-09T08:11:34.655Z,632.00
2023-05-09T08:12:34.688Z,611.00
2023-05-09T08:13:34.745Z,581.00
2023-05-09T08:14:34.754Z,587.00
2023-05-09T08:15:34.895Z,573.00
2023-05-09T08:16:34.818Z,545.00
2023-05-09T08:17:34.838Z,574.00
2023-05-09T08:18:34.820Z,546.00
2023-05-09T08:19:34.838Z,560.00
2023-05-09T08:20:34.849Z,534.00
2023-05-09T08:21:34.871Z,500.00
2023-05-09T08:22:34.933Z,522.00
2023-05-09T08:23:35.312Z,571.00
2023-05-09T08:24:34.926Z,565.00
2023-05-09T08:25:34.964Z,578.00
2023-05-09T08:26:35.042Z,632.00
2023-05-09T08:27:35.014Z,681.00
2023-05-09T08:28:35.065Z,650.00
2023-05-09T08:29:35.067Z,652.00
2023-05-09T08:30:35.051Z,716.00
2023-05-09T08:31:35.293Z,767.00
2023-05-09T08:32:35.257Z,781.00
2023-05-09T08:33:35.293Z,657.00
2023-05-09T08:34:35.290Z,639.00
2023-05-09T08:35:35.308Z,677.00
2023-05-09T08:36:35.343Z,619.00
2023-05-09T08:37:35.349Z,630.00
2023-05-09T08:38:35.339Z,717.00
2023-05-09T08:39:35.850Z,792.00
2023-05-09T08:40:35.345Z,691.00
2023-05-09T08:41:35.323Z,769.00
2023-05-09T08:42:35.389Z,727.00
2023-05-09T08:43:35.826Z,747.00
2023-05-09T08:44:35.477Z,829.00
2023-05-09T08:45:35.544Z,874.00
2023-05-09T08:46:35.632Z,894.00
2023-05-09T08:47:35.747Z,948.00
2023-05-09T08:48:36.129Z,985.00
2023-05-09T08:49:35.714Z,1014.00
2023-05-09T08:50:35.738Z,1059.00
2023-05-09T08:51:35.840Z,1058.00
2023-05-09T08:52:35.821Z,1071.00
2023-05-09T08:53:36.361Z,1088.00
2023-05-09T08:54:35.910Z,1086.00
2023-05-09T08:55:35.920Z,1108.00
2023-05-09T08:56:35.949Z,1069.00
2023-05-09T08:57:35.988Z,1142.00
2023-05-09T08:58:35.981Z,1138.00
2023-05-09T08:59:36.182Z,1166.00
2023-05-09T09:00:36.060Z,1181.00
2023-05-09T09:01:36.152Z,1242.00
2023-05-09T09:02:36.161Z,1074.00
2023-05-09T09:03:36.275Z,1131.00
2023-05-09T09:04:36.357Z,1133.00
2023-05-09T09:06:36.249Z,1218.00
2023-05-09T09:07:36.259Z,1207.00
2023-05-09T09:08:36.244Z,1235.00
2023-05-09T09:09:36.244Z,1190.00
2023-05-09T09:10:36.215Z,1229.00
2023-05-09T09:11:36.294Z,1203.00
2023-05-09T09:12:36.235Z,1242.00
2023-05-09T09:13:36.280Z,1229.00
2023-05-09T09:14:36.340Z,1204.00
2023-05-09T09:15:36.194Z,1243.00
2023-05-09T09:16:36.258Z,1246.00
2023-05-09T09:17:36.230Z,1209.00
2023-05-09T09:18:36.176Z,1230.00
2023-05-09T09:19:36.242Z,1261.00
2023-05-09T09:20:36.182Z,1216.00
2023-05-09T09:21:36.145Z,1203.00
2023-05-09T09:22:36.137Z,1217.00
2023-05-09T09:23:36.152Z,1255.00
2023-05-09T09:24:36.349Z,1286.00
2023-05-09T09:25:36.145Z,1304.00
2023-05-09T09:26:36.117Z,1299.00
2023-05-09T09:27:36.106Z,1274.00
2023-05-09T09:28:36.116Z,1367.00
2023-05-09T09:29:36.367Z,1408.00
2023-05-09T09:30:36.108Z,1451.00
2023-05-09T09:31:36.150Z,1491.00
2023-05-09T09:32:36.128Z,1517.00
2023-05-09T09:33:36.082Z,1563.00
2023-05-09T09:34:36.351Z,1533.00
2023-05-09T09:35:36.146Z,1387.00
2023-05-09T09:36:36.096Z,1399.00
2023-05-09T09:37:36.049Z,1200.00
2023-05-09T09:38:36.049Z,1235.00
2023-05-09T09:39:36.347Z,1223.00
2023-05-09T09:40:36.032Z,1085.00
2023-05-09T09:41:36.038Z,878.00
2023-05-09T09:42:36.001Z,906.00
2023-05-09T09:43:36.003Z,880.00
2023-05-09T09:44:36.357Z,843.00
2023-05-09T09:45:36.047Z,904.00
2023-05-09T09:46:36.090Z,1064.00
2023-05-09T09:47:36.005Z,987.00
2023-05-09T09:48:36.395Z,1166.00
2023-05-09T09:49:36.348Z,1208.00
2023-05-09T09:50:35.964Z,980.00
2023-05-09T09:51:36.040Z,863.00
2023-05-09T09:52:35.933Z,1025.00
2023-05-09T09:53:35.930Z,1081.00
2023-05-09T09:54:36.448Z,1065.00
2023-05-09T09:55:35.919Z,1003.00
2023-05-09T09:56:35.928Z,979.00
2023-05-09T09:57:35.918Z,962.00
2023-05-09T09:58:35.891Z,985.00
2023-05-09T09:59:35.909Z,950.00
2023-05-09T10:00:35.885Z,977.00
2023-05-09T10:01:35.941Z,1001.00
2023-05-09T10:02:35.906Z,930.00
2023-05-09T10:03:35.873Z,951.00
2023-05-09T10:04:35.885Z,852.00
2023-05-09T10:05:35.863Z,925.00
2023-05-09T10:06:35.839Z,929.00
2023-05-09T10:07:35.925Z,884.00
2023-05-09T10:08:35.851Z,799.00
2023-05-09T10:09:35.856Z,857.00
2023-05-09T10:10:35.812Z,797.00
2023-05-09T10:11:35.807Z,813.00
2023-05-09T10:12:35.826Z,783.00
2023-05-09T10:13:35.817Z,796.00
2023-05-09T10:14:35.900Z,807.00
2023-05-09T10:15:49.280Z,722.00
2023-05-09T10:16:43.916Z,722.00
2023-05-09T10:17:36.992Z,725.00
2023-05-09T10:18:36.080Z,736.00
2023-05-09T10:19:35.876Z,707.00
2023-05-09T10:20:35.857Z,739.00
2023-05-09T10:21:36.761Z,790.00
2023-05-09T10:22:35.834Z,604.00
2023-05-09T10:23:35.913Z,563.00
2023-05-09T10:24:35.910Z,564.00
2023-05-09T10:25:35.810Z,618.00
2023-05-09T10:26:35.815Z,665.00
2023-05-09T10:27:35.787Z,707.00
2023-05-09T10:28:35.816Z,764.00
2023-05-09T10:29:35.848Z,745.00
2023-05-09T10:30:35.931Z,790.00
2023-05-09T10:31:35.963Z,863.00
2023-05-09T10:32:35.995Z,877.00
2023-05-09T10:33:36.004Z,967.00
2023-05-09T10:34:36.378Z,989.00
2023-05-09T10:35:36.071Z,992.00
2023-05-09T10:36:36.099Z,1051.00
2023-05-09T10:37:36.148Z,1011.00
2023-05-09T10:38:36.216Z,1074.00
2023-05-09T10:39:36.334Z,1082.00
2023-05-09T10:40:36.317Z,1045.00
2023-05-09T10:41:36.335Z,959.00
2023-05-09T10:42:36.349Z,1075.00
2023-05-09T10:43:36.833Z,1081.00
2023-05-09T10:44:36.870Z,1089.00
2023-05-09T10:45:36.398Z,1076.00
2023-05-09T10:46:36.412Z,1100.00
2023-05-09T10:47:36.408Z,1082.00
2023-05-09T10:48:36.451Z,1062.00
2023-05-09T10:49:37.238Z,1061.00
2023-05-09T10:50:36.434Z,943.00
2023-05-09T10:51:36.465Z,959.00
2023-05-09T10:52:36.502Z,937.00
2023-05-09T10:53:36.488Z,992.00
2023-05-09T10:54:36.896Z,1074.00
2023-05-09T10:55:36.589Z,1127.00
2023-05-09T10:56:36.532Z,1155.00
2023-05-09T10:57:36.522Z,1199.00
2023-05-09T10:58:36.590Z,1231.00
2023-05-09T10:59:36.884Z,1246.00
2023-05-09T11:00:36.572Z,1259.00
2023-05-09T11:01:36.699Z,1290.00
2023-05-09T11:02:36.724Z,1310.00
2023-05-09T11:03:36.814Z,1314.00
2023-05-09T11:04:36.881Z,1307.00
2023-05-09T11:05:36.814Z,1328.00
2023-05-09T11:06:36.838Z,1278.00
2023-05-09T11:07:36.879Z,1261.00
2023-05-09T11:08:36.914Z,1217.00
2023-05-09T11:09:36.933Z,1257.00
2023-05-09T11:10:36.963Z,1302.00
2023-05-09T11:11:37.060Z,1279.00
2023-05-09T11:12:37.060Z,1379.00
2023-05-09T11:13:37.084Z,1323.00
2023-05-09T11:14:37.408Z,1301.00
2023-05-09T11:15:37.195Z,1158.00
2023-05-09T11:16:37.246Z,658.00
2023-05-09T11:17:37.271Z,778.00
2023-05-09T11:18:37.308Z,813.00
2023-05-09T11:19:37.400Z,550.00
2023-05-09T11:20:37.399Z,567.00
2023-05-09T11:21:37.432Z,516.00
2023-05-09T11:22:37.477Z,509.00
2023-05-09T11:23:37.534Z,504.00
2023-05-09T11:24:37.566Z,485.00
2023-05-09T11:25:37.607Z,485.00
2023-05-09T11:26:37.620Z,469.00
2023-05-09T11:27:37.747Z,553.00
2023-05-09T11:28:37.709Z,519.00
2023-05-09T11:29:37.767Z,478.00
2023-05-09T11:30:37.808Z,400.00
2023-05-09T11:31:37.869Z,414.00
2023-05-09T11:32:37.893Z,494.00
2023-05-09T11:33:37.927Z,400.00
2023-05-09T11:34:37.947Z,448.00
2023-05-09T11:35:37.993Z,445.00
2023-05-09T11:36:38.041Z,423.00
2023-05-09T11:37:38.092Z,458.00
2023-05-09T11:38:38.118Z,499.00
2023-05-09T11:39:38.178Z,553.00
2023-05-09T11:40:38.229Z,502.00
2023-05-09T11:41:38.300Z,467.00
2023-05-09T11:42:38.339Z,536.00
2023-05-09T11:43:38.432Z,576.00
2023-05-09T11:44:38.353Z,659.00
2023-05-09T11:45:38.407Z,688.00
2023-05-09T11:46:38.414Z,832.00
2023-05-09T11:47:38.508Z,663.00
2023-05-09T11:48:38.502Z,814.00
2023-05-09T11:49:38.615Z,671.00
2023-05-09T11:50:38.636Z,630.00
2023-05-09T11:51:38.639Z,641.00
2023-05-09T11:52:38.691Z,664.00
2023-05-09T11:53:38.707Z,656.00
2023-05-09T11:54:38.775Z,725.00
2023-05-09T11:55:38.793Z,846.00
2023-05-09T11:56:38.862Z,905.00
2023-05-09T11:57:38.925Z,935.00
2023-05-09T11:58:38.971Z,1016.00
2023-05-09T11:59:39.149Z,1071.00
2023-05-09T12:00:39.054Z,1132.00
2023-05-09T12:01:39.117Z,1114.00
2023-05-09T12:02:39.273Z,1181.00
2023-05-09T12:03:39.297Z,1300.00
2023-05-09T12:04:39.516Z,1360.00
2023-05-09T12:05:39.345Z,1153.00
2023-05-09T12:06:39.434Z,1209.00
2023-05-09T12:07:39.541Z,1373.00
2023-05-09T12:08:39.502Z,1584.00
2023-05-09T12:09:39.584Z,1591.00
2023-05-09T12:10:39.611Z,1642.00
2023-05-09T12:11:39.601Z,1586.00
2023-05-09T12:12:39.654Z,1593.00
2023-05-09T12:13:39.721Z,1745.00
2023-05-09T12:14:39.795Z,1760.00
2023-05-09T12:15:39.963Z,1851.00
2023-05-09T12:16:39.962Z,1991.00
2023-05-09T12:17:39.931Z,2167.00
2023-05-09T12:18:39.886Z,2282.00
2023-05-09T12:19:39.913Z,2180.00
2023-05-09T12:20:39.904Z,2152.00